GMTT/TNG METAR and TAF weather

Enter ICAO airport designator
Station Type Date Time Source
GMTT METAR 2024/04/17 19:30 UTC NOAA

GMTT 171930Z 34002KT 8000 SCT020 18/18 Q1012 NOSIG


Station Type Date Time Source
GMTT Decoded METAR 2024/04/17 19:30 UTC NOAA

Tanger Aerodrome , Morocco (GMTT) 35-44N 005-54W 21M
Apr 17, 2024 - 03:30 PM EDT / 2024.04.17 1930 UTC
Wind: from the NNW (340 degrees) at 2 MPH (2 KT):0
Visibility: 4 mile(s):0
Sky conditions: partly cloudy
Temperature: 64 F (18 C)
Dew Point: 64 F (18 C)
Relative Humidity: 100%
Pressure (altimeter): 29.88 in. Hg (1012 hPa)
ob: GMTT 171930Z 34002KT 8000 SCT020 18/18 Q1012 NOSIG
cycle: 19

Station Type Date Time Source
GMTT TAF 2024/04/17 18:18 UTC NOAA